Terminal Aerodrome Forecast
Issued by NWS

Current Version | Previous Version | Graphics & Text | Print | Product List | Glossary On
Versions: 1 2 3 4 5 6 7 8 9 10 11 12 13 14 15 16 17 18 19 20 21
000
FTUS41 KRLX 020524
TAFCKB
TAF
KCKB 020524Z 0206/0306 00000KT P6SM SCT250
     FM021000 00000KT 5SM BR SCT250
     FM021300 VRB04KT P6SM SCT250
     FM021700 24005KT P6SM SCT040
     FM022000 24006KT P6SM BKN250=

USA.gov is the U.S. government's official web portal to all federal, state and local government web resources and services.